Time;durP1;ratioP1;P1;durP2;ratioP2;P2;SDS_P1;SDS_P2;PMS_P1;PMS_P2;Temp;Humidity;BMP_temperature;BMP_pressure;BME280_temperature;BME280_humidity;BME280_pressure;Samples;Min_cycle;Max_cycle;Signal;HPM_P1;HPM_P2
2022/05/27 00:00:42;;;;;;;5.05;2.40;;;13.60;99.90;;;;;;4428348;28;655615;-67
2022/05/27 00:03:29;;;;;;;3.37;2.33;;;13.40;99.90;;;;;;4426207;28;655848;-67
2022/05/27 00:06:18;;;;;;;4.13;2.27;;;13.50;99.90;;;;;;4401219;28;656731;-67
2022/05/27 00:09:05;;;;;;;4.23;2.20;;;13.60;99.90;;;;;;4411944;28;655975;-67
2022/05/27 00:11:53;;;;;;;5.53;2.27;;;13.60;99.90;;;;;;4428608;28;656709;-67
2022/05/27 00:14:40;;;;;;;4.17;2.20;;;13.80;99.90;;;;;;4418559;28;655991;-67
2022/05/27 00:17:27;;;;;;;5.40;2.10;;;13.70;99.90;;;;;;4434217;28;656480;-67
2022/05/27 00:20:15;;;;;;;5.03;2.27;;;13.80;99.90;;;;;;4430799;28;655067;-67
2022/05/27 00:23:04;;;;;;;4.45;2.22;;;13.80;99.90;;;;;;4412092;28;656078;-67
2022/05/27 00:25:51;;;;;;;4.47;2.10;;;13.90;99.90;;;;;;4407252;28;655322;-67
2022/05/27 00:28:38;;;;;;;4.13;1.87;;;13.90;99.90;;;;;;4427422;28;657192;-67
2022/05/27 00:31:26;;;;;;;3.67;2.20;;;13.90;99.90;;;;;;4404743;28;655452;-67
2022/05/27 00:34:14;;;;;;;5.13;1.93;;;13.90;99.90;;;;;;4431986;28;655930;-67
2022/05/27 00:37:04;;;;;;;5.70;2.28;;;13.90;99.90;;;;;;4406047;28;655137;-67
2022/05/27 00:39:52;;;;;;;3.50;1.77;;;13.90;99.90;;;;;;4409101;28;655947;-67
2022/05/27 00:42:40;;;;;;;5.33;2.07;;;14.00;99.90;;;;;;4423059;28;656245;-67
2022/05/27 00:45:28;;;;;;;6.13;2.13;;;14.00;99.90;;;;;;4403848;28;655944;-67
2022/05/27 00:48:16;;;;;;;3.83;2.07;;;14.00;99.90;;;;;;4417294;28;655366;-67
2022/05/27 00:51:04;;;;;;;5.50;2.10;;;14.00;99.90;;;;;;4425019;28;656559;-67
2022/05/27 00:53:53;;;;;;;8.60;2.20;;;14.10;99.90;;;;;;4406133;28;655636;-67
2022/05/27 00:56:43;;;;;;;4.40;1.83;;;14.10;99.90;;;;;;4408562;28;655379;-67
2022/05/27 00:59:33;;;;;;;6.83;2.30;;;14.00;99.90;;;;;;4417062;28;656075;-67
2022/05/27 01:02:21;;;;;;;5.40;2.07;;;14.00;99.90;;;;;;4406148;28;655900;-67
2022/05/27 01:05:10;;;;;;;7.67;2.07;;;14.00;99.90;;;;;;4429248;28;656016;-67
2022/05/27 01:07:58;;;;;;;14.90;2.40;;;13.90;99.90;;;;;;4406009;28;656857;-67
2022/05/27 01:10:51;;;;;;;8.17;2.43;;;14.00;99.90;;;;;;4403485;28;656466;-67
2022/05/27 01:13:43;;;;;;;5.47;2.10;;;14.00;99.90;;;;;;4414378;28;656164;-67
2022/05/27 01:16:35;;;;;;;7.87;2.40;;;13.90;99.90;;;;;;4388074;28;656137;-67
2022/05/27 01:23:01;;;;;;;5.30;2.22;;;13.90;99.90;;;;;;4410791;28;655263;-67
2022/05/27 01:26:25;;;;;;;6.87;2.50;;;13.90;99.90;;;;;;4406920;28;656297;-67
2022/05/27 01:29:31;;;;;;;6.20;2.20;;;13.90;99.90;;;;;;4385738;28;656077;-67
2022/05/27 01:32:21;;;;;;;6.23;2.23;;;13.90;99.90;;;;;;4412403;28;656163;-67
2022/05/27 01:35:16;;;;;;;7.20;2.13;;;13.90;99.90;;;;;;4410500;28;656710;-67
2022/05/27 01:38:07;;;;;;;5.15;2.50;;;13.90;99.90;;;;;;4406268;28;655856;-67
2022/05/27 01:40:59;;;;;;;9.13;2.43;;;13.90;99.90;;;;;;4406605;28;655898;-67
2022/05/27 01:43:49;;;;;;;5.40;2.10;;;13.80;99.90;;;;;;4385818;28;656247;-67
2022/05/27 01:46:38;;;;;;;9.07;2.10;;;13.80;99.90;;;;;;4408885;28;655820;-67
2022/05/27 01:49:29;;;;;;;7.10;2.50;;;13.90;99.90;;;;;;4422680;28;655533;-67
2022/05/27 01:52:19;;;;;;;8.43;2.10;;;13.90;99.90;;;;;;4409319;28;655420;-67
2022/05/27 01:55:08;;;;;;;5.03;2.33;;;13.90;99.90;;;;;;4410170;28;655615;-67
2022/05/27 01:57:57;;;;;;;6.27;2.20;;;13.90;99.90;;;;;;4415418;28;656052;-67
2022/05/27 02:00:46;;;;;;;7.03;2.13;;;13.80;99.90;;;;;;4426027;28;656122;-67
2022/05/27 02:03:35;;;;;;;4.43;2.60;;;13.80;99.90;;;;;;4429145;28;656389;-67
2022/05/27 02:06:25;;;;;;;6.03;2.80;;;13.80;99.90;;;;;;4402333;28;656381;-67
2022/05/27 02:09:16;;;;;;;9.03;3.10;;;13.80;99.90;;;;;;4402595;28;656840;-67
2022/05/27 02:12:05;;;;;;;6.57;2.57;;;13.80;99.90;;;;;;4405034;28;655866;-67
2022/05/27 02:14:54;;;;;;;6.03;2.50;;;13.70;99.90;;;;;;4407406;28;656660;-67
2022/05/27 02:17:42;;;;;;;4.73;2.50;;;13.80;99.90;;;;;;4402672;28;655552;-67
2022/05/27 02:20:32;;;;;;;8.53;2.40;;;13.80;99.90;;;;;;4424200;28;655438;-67
2022/05/27 02:23:29;;;;;;;4.37;2.30;;;13.80;99.90;;;;;;4429000;28;655334;-68
2022/05/27 02:26:17;;;;;;;7.17;2.50;;;13.60;99.90;;;;;;4409627;28;655924;-67
2022/05/27 02:29:07;;;;;;;4.03;1.90;;;13.60;99.90;;;;;;4428959;28;655784;-67
2022/05/27 02:31:56;;;;;;;5.03;2.17;;;13.60;99.90;;;;;;4409862;28;655788;-67
2022/05/27 02:37:51;;;;;;;7.93;2.07;;;13.50;99.90;;;;;;4390257;28;655629;-67
2022/05/27 02:40:43;;;;;;;3.50;1.97;;;13.50;99.90;;;;;;4433220;28;655690;-66
2022/05/27 02:43:38;;;;;;;2.83;1.70;;;13.50;99.90;;;;;;4394630;28;655373;-66
2022/05/27 02:46:27;;;;;;;4.73;2.07;;;13.40;99.90;;;;;;4389259;28;656567;-67
2022/05/27 02:49:17;;;;;;;2.13;1.67;;;13.50;99.90;;;;;;4434295;28;655189;-67
2022/05/27 02:52:10;;;;;;;4.30;2.00;;;13.50;99.90;;;;;;4406722;28;655477;-67
2022/05/27 02:55:01;;;;;;;3.13;1.50;;;13.50;99.90;;;;;;4408734;28;657009;-66
2022/05/27 02:57:50;;;;;;;2.97;1.60;;;13.80;99.90;;;;;;4403699;28;656369;-66
2022/05/27 03:00:39;;;;;;;4.97;1.50;;;13.70;99.90;;;;;;4414685;28;655808;-66
2022/05/27 03:03:26;;;;;;;3.77;1.47;;;13.80;99.90;;;;;;4408677;28;655568;-66
2022/05/27 03:06:23;;;;;;;9.30;1.93;;;13.80;99.90;;;;;;4428611;28;656686;-66
2022/05/27 03:09:14;;;;;;;3.97;1.60;;;13.80;99.90;;;;;;4407227;28;655417;-67
2022/05/27 03:12:05;;;;;;;4.23;1.47;;;13.80;99.90;;;;;;4406052;28;656601;-66
2022/05/27 03:15:09;;;;;;;3.03;1.67;;;13.90;99.90;;;;;;4402755;28;656951;-66
2022/05/27 03:18:06;;;;;;;3.20;1.73;;;13.80;99.90;;;;;;4411457;28;656211;-66
2022/05/27 03:20:57;;;;;;;3.93;1.90;;;13.90;99.90;;;;;;4404147;28;656199;-67
2022/05/27 03:23:55;;;;;;;7.33;2.50;;;13.80;99.90;;;;;;4405337;28;656231;-66
2022/05/27 03:26:49;;;;;;;7.57;3.30;;;13.90;99.90;;;;;;4386819;28;656070;-67
2022/05/27 03:29:40;;;;;;;4.90;3.10;;;13.90;99.90;;;;;;4372157;28;656931;-66
2022/05/27 03:32:31;;;;;;;5.73;3.70;;;13.90;99.90;;;;;;4406373;28;656799;-66
2022/05/27 03:35:22;;;;;;;4.67;3.20;;;13.90;99.90;;;;;;4401964;28;655292;-67
2022/05/27 03:38:11;;;;;;;4.83;3.20;;;13.80;99.90;;;;;;4406546;28;656291;-66
2022/05/27 03:41:02;;;;;;;6.27;3.67;;;13.90;99.90;;;;;;4409549;28;655143;-66
2022/05/27 03:43:49;;;;;;;4.70;3.47;;;14.00;99.90;;;;;;4403846;28;655352;-66
2022/05/27 03:46:37;;;;;;;6.47;3.37;;;13.90;99.90;;;;;;4404239;28;655609;-67
2022/05/27 03:49:26;;;;;;;5.00;3.30;;;13.90;99.90;;;;;;4425474;28;655703;-67
2022/05/27 03:52:15;;;;;;;7.87;3.83;;;14.00;99.90;;;;;;4403647;28;656877;-66
2022/05/27 03:55:02;;;;;;;8.23;3.80;;;14.00;99.90;;;;;;4410113;28;656140;-66
2022/05/27 03:57:49;;;;;;;7.03;3.50;;;14.10;99.90;;;;;;4430360;28;655129;-66
2022/05/27 04:00:37;;;;;;;8.47;3.30;;;14.10;99.90;;;;;;4407022;28;656327;-66
2022/05/27 04:03:24;;;;;;;6.50;2.87;;;14.20;99.90;;;;;;4431596;28;655498;-66
2022/05/27 04:06:12;;;;;;;9.70;2.60;;;14.20;99.90;;;;;;4409026;28;655681;-66
2022/05/27 04:09:00;;;;;;;8.27;2.50;;;14.10;99.90;;;;;;4427597;28;656020;-67
2022/05/27 04:11:48;;;;;;;4.37;2.30;;;14.10;99.90;;;;;;4428190;28;655967;-66
2022/05/27 04:14:35;;;;;;;5.20;1.70;;;14.10;99.90;;;;;;4418027;28;655571;-67
2022/05/27 04:17:30;;;;;;;9.40;2.03;;;14.10;99.90;;;;;;4429507;28;656388;-67
2022/05/27 04:20:19;;;;;;;2.97;1.50;;;14.20;99.90;;;;;;4409147;28;655316;-66
2022/05/27 04:23:08;;;;;;;3.67;1.43;;;14.20;99.90;;;;;;4409616;28;656232;-66
2022/05/27 04:25:55;;;;;;;2.92;1.30;;;14.10;99.90;;;;;;4414196;28;655635;-66
2022/05/27 04:28:42;;;;;;;6.67;1.60;;;14.20;99.90;;;;;;4429475;28;657003;-66
2022/05/27 04:31:30;;;;;;;3.00;1.30;;;14.10;99.90;;;;;;4427387;28;655521;-66
2022/05/27 04:34:17;;;;;;;2.73;1.30;;;14.20;99.90;;;;;;4430103;28;655526;-66
2022/05/27 04:37:05;;;;;;;1.73;1.00;;;14.20;99.90;;;;;;4431617;28;655292;-66
2022/05/27 04:39:54;;;;;;;7.70;1.40;;;14.20;99.90;;;;;;4407636;28;657269;-67
2022/05/27 04:42:41;;;;;;;4.77;1.20;;;14.20;99.90;;;;;;4409846;28;655531;-66
2022/05/27 04:45:28;;;;;;;3.60;1.35;;;14.30;99.90;;;;;;4429891;28;656961;-66
2022/05/27 04:48:16;;;;;;;1.60;1.00;;;14.30;99.90;;;;;;4413096;28;655216;-66
2022/05/27 04:51:03;;;;;;;4.73;1.20;;;14.30;99.90;;;;;;4433076;28;656023;-66
2022/05/27 04:53:50;;;;;;;2.90;1.40;;;14.40;99.90;;;;;;4411891;28;655239;-67
2022/05/27 04:56:39;;;;;;;3.63;1.10;;;14.40;99.90;;;;;;4434991;28;656164;-66
2022/05/27 04:59:26;;;;;;;4.00;1.55;;;14.50;99.90;;;;;;4409541;28;655460;-66
2022/05/27 05:02:14;;;;;;;1.53;1.27;;;14.50;99.90;;;;;;4428744;28;657171;-66
2022/05/27 05:05:02;;;;;;;5.73;1.27;;;14.50;99.90;;;;;;4414480;28;656431;-66
2022/05/27 05:07:51;;;;;;;4.63;1.20;;;14.50;99.90;;;;;;4434701;28;656156;-67
2022/05/27 05:10:38;;;;;;;4.20;1.27;;;14.60;99.90;;;;;;4408023;28;656533;-67
2022/05/27 05:13:27;;;;;;;3.80;1.20;;;14.50;99.90;;;;;;4413315;28;655525;-66
2022/05/27 05:16:14;;;;;;;2.03;0.97;;;14.60;99.90;;;;;;4434921;28;655644;-67
2022/05/27 05:19:01;;;;;;;4.27;1.60;;;14.60;99.90;;;;;;4410964;28;655680;-66
2022/05/27 05:21:48;;;;;;;2.87;1.43;;;14.50;99.90;;;;;;4428681;28;655979;-67
2022/05/27 05:24:36;;;;;;;3.00;1.13;;;14.60;99.90;;;;;;4412521;28;655528;-66
2022/05/27 05:27:23;;;;;;;4.67;1.30;;;14.60;99.90;;;;;;4434600;28;656086;-66
2022/05/27 05:30:15;;;;;;;3.13;1.40;;;14.60;99.90;;;;;;4414590;28;655367;-66
2022/05/27 05:33:02;;;;;;;4.90;1.50;;;14.80;99.90;;;;;;4412475;28;656403;-66
2022/05/27 05:35:49;;;;;;;1.73;1.20;;;14.90;99.90;;;;;;4433378;28;655279;-66
2022/05/27 05:38:37;;;;;;;2.87;1.33;;;14.90;99.90;;;;;;4411332;28;655787;-66
2022/05/27 05:41:27;;;;;;;2.23;1.30;;;15.00;99.90;;;;;;4432644;28;655325;-66
2022/05/27 05:44:14;;;;;;;4.20;1.30;;;15.00;99.90;;;;;;4409451;28;655564;-66
2022/05/27 05:47:03;;;;;;;5.90;1.57;;;15.00;99.90;;;;;;4412004;28;655540;-69
2022/05/27 05:49:51;;;;;;;3.57;1.80;;;15.00;99.90;;;;;;4409286;28;655775;-69
2022/05/27 05:52:38;;;;;;;5.23;1.50;;;15.00;99.90;;;;;;4431863;28;655552;-68
2022/05/27 05:55:26;;;;;;;4.33;1.70;;;15.00;99.90;;;;;;4415839;28;655668;-69
2022/05/27 05:58:13;;;;;;;3.27;1.50;;;14.90;99.90;;;;;;4428998;28;656498;-69
2022/05/27 06:01:00;;;;;;;3.87;1.40;;;14.80;99.90;;;;;;4413096;28;655369;-69
2022/05/27 06:03:49;;;;;;;5.03;1.63;;;14.80;99.90;;;;;;4429060;28;656533;-69
2022/05/27 06:06:36;;;;;;;4.83;1.60;;;14.90;99.90;;;;;;4411184;28;656538;-69
2022/05/27 06:09:25;;;;;;;2.77;1.40;;;15.00;99.90;;;;;;4432141;28;656278;-69
2022/05/27 06:12:15;;;;;;;3.83;1.40;;;15.00;99.90;;;;;;4410454;28;655994;-68
2022/05/27 06:15:02;;;;;;;2.40;1.20;;;15.10;99.90;;;;;;4409223;28;657056;-69
2022/05/27 06:17:49;;;;;;;4.30;1.57;;;15.20;99.90;;;;;;4430328;28;655696;-69
2022/05/27 06:20:39;;;;;;;6.93;2.00;;;15.30;99.90;;;;;;4412803;28;656537;-69
2022/05/27 06:23:28;;;;;;;4.10;1.57;;;15.30;99.90;;;;;;4408744;28;655315;-69
2022/05/27 06:26:15;;;;;;;2.33;1.10;;;15.50;99.90;;;;;;4408812;28;655775;-69
2022/05/27 06:35:13;;;;;;;1.07;0.93;;;15.60;99.90;;;;;;4406542;28;656242;-69
2022/05/27 06:38:02;;;;;;;4.53;1.60;;;15.40;99.90;;;;;;4419641;28;656370;-69
2022/05/27 06:40:49;;;;;;;4.73;1.60;;;15.60;99.90;;;;;;4428583;28;655853;-69
2022/05/27 06:43:36;;;;;;;2.90;1.20;;;15.60;99.90;;;;;;4414535;28;655415;-68
2022/05/27 06:46:23;;;;;;;6.90;1.63;;;15.60;99.90;;;;;;4432802;28;655690;-68
2022/05/27 06:49:10;;;;;;;3.30;1.43;;;15.80;99.90;;;;;;4413976;28;655506;-69
2022/05/27 06:51:57;;;;;;;4.23;1.70;;;16.00;99.90;;;;;;4430413;28;656812;-69
2022/05/27 06:54:46;;;;;;;1.83;1.40;;;16.20;99.90;;;;;;4434215;28;655147;-69
2022/05/27 06:57:34;;;;;;;3.23;1.20;;;16.40;99.90;;;;;;4445327;28;656015;-69
2022/05/27 07:00:22;;;;;;;0.87;0.77;;;16.40;99.90;;;;;;4410915;28;655684;-66
2022/05/27 07:03:09;;;;;;;3.90;1.43;;;16.40;99.90;;;;;;4430749;28;656024;-67
2022/05/27 07:05:56;;;;;;;2.97;1.20;;;16.80;99.90;;;;;;4406368;28;655411;-66
2022/05/27 07:08:43;;;;;;;4.50;1.57;;;16.50;99.90;;;;;;4428072;28;656726;-67
2022/05/27 07:11:32;;;;;;;3.97;1.47;;;17.00;99.90;;;;;;4408629;28;655400;-67
2022/05/27 07:14:19;;;;;;;11.23;1.60;;;17.40;99.90;;;;;;4429401;28;655624;-67
2022/05/27 07:17:06;;;;;;;2.93;1.43;;;17.50;99.90;;;;;;4407067;28;657362;-67
2022/05/27 07:19:54;;;;;;;7.07;1.70;;;17.30;99.90;;;;;;4423814;28;655682;-66
2022/05/27 07:22:42;;;;;;;2.60;1.10;;;17.10;99.90;;;;;;4407520;28;655634;-66
2022/05/27 07:25:31;;;;;;;3.67;1.23;;;17.00;99.90;;;;;;4432288;28;654760;-67
2022/05/27 07:28:20;;;;;;;6.30;1.40;;;17.30;99.90;;;;;;4403188;28;656115;-66
2022/05/27 07:31:07;;;;;;;10.53;1.53;;;17.40;99.90;;;;;;4404741;28;656883;-66
2022/05/27 07:33:54;;;;;;;3.93;0.90;;;17.60;99.90;;;;;;4427021;28;656938;-66
2022/05/27 07:36:41;;;;;;;7.93;1.37;;;17.90;96.60;;;;;;4408285;28;655996;-66
2022/05/27 07:39:29;;;;;;;4.60;1.30;;;17.70;99.90;;;;;;4430280;28;655753;-67
2022/05/27 07:42:16;;;;;;;4.93;1.30;;;17.90;97.30;;;;;;4404276;28;655439;-67
2022/05/27 07:45:05;;;;;;;3.57;1.20;;;17.70;99.90;;;;;;4425866;28;655902;-66
2022/05/27 07:47:52;;;;;;;6.67;1.20;;;18.10;99.90;;;;;;4406079;28;655620;-66
2022/05/27 07:50:40;;;;;;;2.50;1.30;;;18.20;94.20;;;;;;4431416;28;655376;-66
2022/05/27 07:53:27;;;;;;;4.83;1.60;;;18.00;95.80;;;;;;4405950;28;657869;-66
2022/05/27 07:56:14;;;;;;;4.50;1.50;;;18.30;93.70;;;;;;4422429;28;655807;-66
2022/05/27 07:59:02;;;;;;;4.13;1.43;;;18.30;95.00;;;;;;4410065;28;655588;-67
2022/05/27 08:01:50;;;;;;;2.10;1.30;;;18.20;90.90;;;;;;4426167;28;655387;-66
2022/05/27 08:04:38;;;;;;;2.00;1.00;;;18.10;95.70;;;;;;4397365;28;656646;-67
2022/05/27 08:07:26;;;;;;;4.50;1.30;;;18.10;95.50;;;;;;4416073;28;655676;-67
2022/05/27 08:10:15;;;;;;;7.70;1.43;;;18.10;96.80;;;;;;4433705;28;656737;-66
2022/05/27 08:13:02;;;;;;;3.47;0.93;;;18.20;95.50;;;;;;4406942;28;656711;-66
2022/05/27 08:15:49;;;;;;;2.70;1.30;;;18.00;94.50;;;;;;4422233;28;655611;-66
2022/05/27 08:18:38;;;;;;;8.10;1.40;;;18.20;99.90;;;;;;4407600;28;655873;-66
2022/05/27 08:21:26;;;;;;;4.13;1.40;;;18.20;95.10;;;;;;4409321;28;655147;-67
2022/05/27 08:24:13;;;;;;;2.47;1.50;;;18.20;97.00;;;;;;4430715;28;656520;-66
2022/05/27 08:27:01;;;;;;;4.82;1.35;;;18.40;95.70;;;;;;4407343;28;655672;-66
2022/05/27 08:29:49;;;;;;;1.70;1.13;;;18.70;99.90;;;;;;4430379;28;657327;-66
2022/05/27 08:32:36;;;;;;;1.17;1.00;;;18.90;93.10;;;;;;4408406;28;655685;-66
2022/05/27 08:38:31;;;;;;;4.33;1.10;;;19.10;92.90;;;;;;4400983;28;655727;-66
2022/05/27 08:41:48;;;;;;;4.97;1.30;;;18.80;90.40;;;;;;4408255;28;656391;-66
2022/05/27 08:44:41;;;;;;;3.07;1.20;;;19.00;92.30;;;;;;4390984;28;656018;-67
2022/05/27 08:47:30;;;;;;;8.33;1.70;;;19.00;92.70;;;;;;4413126;28;656074;-67
2022/05/27 08:50:20;;;;;;;3.20;1.30;;;19.10;93.00;;;;;;4412446;28;655926;-66
2022/05/27 08:53:14;;;;;;;2.10;1.10;;;19.10;91.40;;;;;;4403897;28;656800;-66
2022/05/27 08:59:28;;;;;;;6.60;1.70;;;19.10;91.60;;;;;;4410959;28;655957;-67
2022/05/27 09:02:19;;;;;;;1.57;1.30;;;19.00;90.70;;;;;;4386215;28;655912;-66
2022/05/27 09:05:14;;;;;;;3.67;1.40;;;18.80;90.10;;;;;;4407452;28;655435;-66
2022/05/27 09:08:03;;;;;;;2.83;1.10;;;18.80;91.10;;;;;;4396941;28;656114;-67
2022/05/27 09:10:58;;;;;;;4.63;1.77;;;19.10;89.30;;;;;;4406610;28;656285;-67
2022/05/27 09:13:48;;;;;;;7.27;1.33;;;19.30;91.10;;;;;;4386303;28;656289;-67
2022/05/27 09:16:39;;;;;;;0.83;0.77;;;19.20;93.10;;;;;;4406780;28;656664;-66
2022/05/27 09:19:27;;;;;;;5.63;1.30;;;19.00;86.50;;;;;;4408024;28;655717;-67
2022/05/27 09:22:17;;;;;;;4.90;1.17;;;19.20;86.70;;;;;;4428653;28;655383;-67
2022/05/27 09:25:12;;;;;;;2.20;1.27;;;19.10;85.20;;;;;;4399808;28;655505;-66
2022/05/27 09:28:06;;;;;;;7.73;1.17;;;18.80;85.00;;;;;;4396783;28;655758;-67
2022/05/27 09:30:53;;;;;;;5.23;1.23;;;18.80;89.50;;;;;;4403279;28;656027;-66
2022/05/27 09:33:40;;;;;;;3.03;1.17;;;18.70;88.50;;;;;;4408950;28;655502;-67
2022/05/27 09:36:34;;;;;;;2.83;1.00;;;18.70;87.20;;;;;;4430118;28;656935;-66
2022/05/27 09:39:24;;;;;;;5.50;1.30;;;18.80;85.90;;;;;;4409447;28;655909;-67
2022/05/27 09:42:14;;;;;;;4.70;1.27;;;19.00;84.90;;;;;;4412023;28;655410;-66
2022/05/27 09:45:04;;;;;;;4.80;1.40;;;19.00;86.10;;;;;;4408331;28;656213;-66
2022/05/27 09:47:51;;;;;;;2.27;1.00;;;19.20;88.30;;;;;;4407586;28;657219;-66
2022/05/27 09:50:41;;;;;;;5.30;1.30;;;19.50;84.20;;;;;;4427943;28;656278;-67
2022/05/27 09:53:29;;;;;;;8.30;1.40;;;19.50;84.50;;;;;;4406598;28;656384;-66
2022/05/27 09:56:17;;;;;;;10.37;1.40;;;19.60;79.70;;;;;;4408578;28;655245;-66
2022/05/27 09:59:19;;;;;;;9.07;1.30;;;19.50;84.20;;;;;;4440095;28;656307;-66
2022/05/27 10:02:17;;;;;;;2.87;1.30;;;19.60;83.30;;;;;;4380668;28;656656;-66
2022/05/27 10:05:05;;;;;;;6.00;1.13;;;19.30;85.10;;;;;;4411076;28;655472;-66
2022/05/27 10:07:53;;;;;;;7.30;1.50;;;19.10;83.20;;;;;;4408019;28;656236;-67
2022/05/27 10:10:42;;;;;;;7.17;1.50;;;19.10;86.50;;;;;;4409256;28;655979;-66
2022/05/27 10:13:34;;;;;;;5.13;1.40;;;19.00;83.00;;;;;;4413697;28;655522;-67
2022/05/27 10:16:23;;;;;;;10.27;1.43;;;19.20;83.50;;;;;;4369625;28;656153;-66
2022/05/27 10:19:14;;;;;;;2.67;1.27;;;19.10;88.50;;;;;;4393348;28;656941;-67
2022/05/27 10:22:02;;;;;;;11.50;1.70;;;19.10;84.90;;;;;;4393123;28;655663;-66
2022/05/27 10:24:57;;;;;;;4.47;1.60;;;18.80;89.50;;;;;;4409993;28;656802;-66
2022/05/27 10:27:52;;;;;;;5.60;1.73;;;18.80;86.10;;;;;;4390121;28;655737;-66
2022/05/27 10:30:41;;;;;;;8.23;1.60;;;19.00;85.10;;;;;;4387595;28;655859;-68
2022/05/27 10:33:38;;;;;;;7.83;1.60;;;19.10;82.90;;;;;;4391400;28;655580;-68
2022/05/27 10:36:50;;;;;;;6.87;0.80;;;19.10;84.90;;;;;;4368463;28;655775;-66
2022/05/27 10:39:40;;;;;;;8.63;1.40;;;19.00;85.20;;;;;;4361205;28;656163;-66
2022/05/27 10:42:31;;;;;;;2.57;1.00;;;19.10;89.70;;;;;;4385792;28;657111;-66
2022/05/27 10:45:20;;;;;;;4.90;1.60;;;19.00;89.00;;;;;;4387435;28;655956;-66
2022/05/27 10:48:36;;;;;;;4.30;1.30;;;19.00;88.10;;;;;;4389594;28;656788;-66
2022/05/27 10:51:30;;;;;;;5.30;1.40;;;19.00;87.40;;;;;;4387031;28;655782;-66
2022/05/27 10:54:40;;;;;;;6.00;1.63;;;19.00;90.50;;;;;;4369717;28;655743;-66
2022/05/27 11:04:03;;;;;;;4.03;0.97;;;18.90;92.00;;;;;;4368993;28;656210;-67
2022/05/27 11:07:03;;;;;;;4.37;1.43;;;18.70;92.00;;;;;;4381976;28;655665;-66
2022/05/27 11:09:59;;;;;;;4.60;1.73;;;18.60;93.10;;;;;;4369439;28;655492;-66
2022/05/27 11:16:19;;;;;;;9.83;1.70;;;18.50;93.50;;;;;;4296725;28;656014;-66
2022/05/27 11:19:26;;;;;;;7.23;1.40;;;18.50;94.60;;;;;;4325171;28;656103;-66
2022/05/27 11:22:18;;;;;;;3.23;1.37;;;18.30;95.00;;;;;;4394292;28;656071;-66
2022/05/27 11:25:19;;;;;;;7.10;1.70;;;18.30;98.70;;;;;;4388420;28;655614;-66
2022/05/27 11:28:27;;;;;;;4.20;1.60;;;17.90;99.90;;;;;;4412630;28;655614;-66
2022/05/27 11:31:24;;;;;;;8.80;1.73;;;17.30;99.90;;;;;;4406895;28;656635;-66
2022/05/27 11:34:18;;;;;;;8.70;2.10;;;16.90;99.90;;;;;;4410685;28;656045;-66
2022/05/27 11:37:22;;;;;;;11.93;1.90;;;16.40;99.90;;;;;;4392615;28;656389;-66
2022/05/27 11:40:32;;;;;;;5.40;2.33;;;16.30;99.90;;;;;;4405551;28;657668;-66
2022/05/27 11:43:37;;;;;;;6.37;2.13;;;16.20;99.90;;;;;;4424087;28;656537;-66
2022/05/27 11:46:49;;;;;;;9.07;2.93;;;16.00;99.90;;;;;;4401936;28;657322;-66
2022/05/27 11:49:41;;;;;;;7.07;2.60;;;15.90;99.90;;;;;;4401241;28;657359;-66
2022/05/27 11:52:53;;;;;;;8.43;2.60;;;15.70;99.90;;;;;;4405510;28;656721;-65
2022/05/27 11:55:53;;;;;;;16.70;7.67;;;15.60;99.90;;;;;;4376907;28;656819;-66
2022/05/27 11:58:49;;;;;;;9.33;3.27;;;15.40;99.90;;;;;;4384021;28;657654;-65
2022/05/27 12:01:37;;;;;;;10.63;3.80;;;15.40;99.90;;;;;;4406914;28;656801;-66
2022/05/27 12:04:31;;;;;;;5.77;3.20;;;15.30;99.90;;;;;;4424978;28;657625;-66
2022/05/27 12:07:21;;;;;;;8.67;3.50;;;15.40;99.90;;;;;;4390008;28;657891;-66
2022/05/27 12:10:18;;;;;;;14.53;3.83;;;15.50;99.90;;;;;;4405816;28;657324;-65
2022/05/27 12:13:10;;;;;;;11.25;4.13;;;15.40;99.90;;;;;;4381690;28;657720;-66
2022/05/27 12:16:01;;;;;;;10.83;4.07;;;15.40;99.90;;;;;;4403562;28;659325;-66
2022/05/27 12:18:49;;;;;;;18.90;9.13;;;15.40;99.90;;;;;;4400902;28;658251;-65
2022/05/27 12:21:39;;;;;;;8.85;4.15;;;15.30;99.90;;;;;;4405562;28;657473;-66
2022/05/27 12:24:28;;;;;;;7.60;4.47;;;15.30;99.90;;;;;;4412994;28;656764;-66
2022/05/27 12:27:17;;;;;;;11.37;4.43;;;15.20;99.90;;;;;;4403230;28;656576;-65
2022/05/27 12:30:09;;;;;;;8.77;4.87;;;15.30;99.90;;;;;;4425722;28;657685;-66
2022/05/27 12:32:57;;;;;;;8.27;5.00;;;15.30;99.90;;;;;;4381249;28;657597;-66
2022/05/27 12:35:52;;;;;;;9.27;5.13;;;15.10;99.90;;;;;;4429551;28;656234;-65
2022/05/27 12:38:44;;;;;;;8.80;5.13;;;15.10;99.90;;;;;;4414114;28;656242;-66
2022/05/27 12:41:36;;;;;;;6.73;4.27;;;14.80;99.90;;;;;;4379462;28;657489;-66
2022/05/27 12:44:28;;;;;;;4.10;3.30;;;14.40;99.90;;;;;;4410832;28;658442;-65
2022/05/27 12:47:19;;;;;;;10.50;3.23;;;13.80;99.90;;;;;;4379889;28;657673;-66
2022/05/27 12:50:07;;;;;;;3.37;2.50;;;13.10;99.90;;;;;;4407385;28;657828;-65
2022/05/27 12:52:56;;;;;;;1.83;1.27;;;12.70;99.90;;;;;;4424613;28;657028;-68
2022/05/27 13:02:50;;;;;;;1.90;1.50;;;11.40;99.90;;;;;;4406827;28;656370;-68
2022/05/27 13:06:02;;;;;;;4.40;1.50;;;11.20;99.90;;;;;;4404560;28;656747;-68
2022/05/27 13:09:00;;;;;;;1.63;1.20;;;11.00;99.90;;;;;;4429737;28;656477;-68
2022/05/27 13:11:47;;;;;;;9.97;2.90;;;10.90;99.90;;;;;;4409808;28;656658;-68
2022/05/27 13:14:46;;;;;;;3.73;1.80;;;10.90;99.90;;;;;;4432987;28;656396;-68
2022/05/27 13:17:35;;;;;;;2.83;1.73;;;10.90;99.90;;;;;;4411084;28;656832;-68
2022/05/27 13:20:25;;;;;;;3.97;1.33;;;10.80;99.90;;;;;;4410202;28;657479;-68
2022/05/27 13:23:14;;;;;;;3.73;1.60;;;10.80;99.90;;;;;;4407541;28;657696;-68
2022/05/27 13:26:13;;;;;;;4.37;1.40;;;10.80;99.90;;;;;;4406669;28;656855;-68
2022/05/27 13:29:01;;;;;;;1.47;1.20;;;10.80;99.90;;;;;;4387731;28;657311;-68
2022/05/27 13:31:48;;;;;;;1.73;1.40;;;10.70;99.90;;;;;;4432701;28;657444;-68
2022/05/27 13:34:40;;;;;;;3.53;1.47;;;10.90;99.90;;;;;;4415991;28;657089;-68
2022/05/27 13:37:46;;;;;;;2.47;1.37;;;10.70;99.90;;;;;;4406157;28;657562;-68
2022/05/27 13:40:35;;;;;;;2.50;1.50;;;10.90;99.90;;;;;;4408130;28;656860;-68
2022/05/27 13:43:25;;;;;;;2.47;1.33;;;10.80;99.90;;;;;;4411577;28;657449;-68
2022/05/27 13:46:15;;;;;;;1.83;1.10;;;10.80;99.90;;;;;;4393839;28;657767;-68
2022/05/27 13:49:05;;;;;;;2.93;1.40;;;10.60;99.90;;;;;;4408732;28;656995;-68
2022/05/27 13:51:52;;;;;;;2.23;1.20;;;10.50;99.90;;;;;;4406803;28;657897;-68
2022/05/27 13:54:43;;;;;;;2.53;1.80;;;10.50;99.90;;;;;;4423709;28;656373;-68
2022/05/27 13:57:30;;;;;;;2.33;1.57;;;10.60;99.90;;;;;;4409323;28;656652;-68
2022/05/27 14:00:19;;;;;;;2.77;2.10;;;10.60;99.90;;;;;;4434156;28;656176;-68
2022/05/27 14:03:07;;;;;;;3.07;2.13;;;10.60;99.90;;;;;;4408959;28;656080;-68
2022/05/27 14:05:58;;;;;;;4.47;2.47;;;10.50;99.90;;;;;;4432418;28;656674;-68
2022/05/27 14:08:45;;;;;;;5.65;3.22;;;10.50;99.90;;;;;;4409307;28;656569;-69
2022/05/27 14:11:34;;;;;;;4.87;3.37;;;10.60;99.90;;;;;;4438079;28;657225;-68
2022/05/27 14:14:23;;;;;;;6.03;4.07;;;10.60;99.90;;;;;;4413539;28;656493;-68
2022/05/27 14:17:13;;;;;;;7.20;4.27;;;10.80;99.90;;;;;;4410188;28;657473;-68
2022/05/27 14:20:01;;;;;;;6.40;3.60;;;10.70;99.90;;;;;;4422628;28;656661;-68
2022/05/27 14:22:48;;;;;;;7.20;3.67;;;10.60;99.90;;;;;;4428790;28;656869;-68
2022/05/27 14:25:38;;;;;;;8.47;4.33;;;10.60;99.90;;;;;;4412113;28;656454;-68
2022/05/27 14:28:29;;;;;;;7.17;4.00;;;10.60;99.90;;;;;;4403645;28;657282;-68
2022/05/27 14:31:18;;;;;;;7.20;5.00;;;10.70;99.90;;;;;;4410926;28;657559;-68
2022/05/27 14:34:05;;;;;;;9.70;4.72;;;10.80;99.90;;;;;;4410475;28;656878;-68
2022/05/27 14:36:55;;;;;;;8.53;4.63;;;10.80;99.90;;;;;;4429521;28;657066;-68
2022/05/27 14:39:42;;;;;;;6.55;3.65;;;10.80;99.90;;;;;;4408415;28;657676;-68
2022/05/27 14:42:30;;;;;;;8.00;3.17;;;10.80;99.90;;;;;;4431042;28;656592;-68
2022/05/27 14:45:41;;;;;;;4.80;2.93;;;10.70;99.90;;;;;;4429072;28;657237;-68
2022/05/27 14:48:35;;;;;;;4.70;2.40;;;10.70;99.90;;;;;;4409814;28;656564;-68
2022/05/27 14:51:31;;;;;;;5.43;2.23;;;10.60;99.90;;;;;;4406886;28;657079;-68
2022/05/27 14:54:23;;;;;;;3.43;2.07;;;10.60;99.90;;;;;;4412173;28;657225;-68
2022/05/27 14:57:15;;;;;;;5.27;2.63;;;10.50;99.90;;;;;;4386693;28;656969;-68
2022/05/27 15:00:05;;;;;;;1.87;1.20;;;10.50;99.90;;;;;;4407767;28;656861;-68
2022/05/27 15:02:55;;;;;;;5.93;2.50;;;10.40;99.90;;;;;;4409239;28;657069;-68
2022/05/27 15:05:42;;;;;;;4.87;2.83;;;10.30;99.90;;;;;;4403646;28;657221;-68
2022/05/27 15:08:31;;;;;;;9.13;3.97;;;10.40;99.90;;;;;;4429145;28;656724;-69
2022/05/27 15:11:22;;;;;;;5.80;4.40;;;10.40;99.90;;;;;;4406581;28;657539;-68